Latest Weather Observations for Nuriootpa

IDS60801

Issued at 4:11 pm CST Friday 23 August 2019 (issued every 10 minutes, with the page automatically refreshed every 10 minutes)

About weather observations | Map of weather stations | Latest weather observations for SA | Other Formats
Station Details ID: 023373 Name: NURIOOTPA PIRSA Lat: -34.48 Lon: 139.01 Height: 275.0 m
Data from the previous 72 hours. | See also: Recent months at Nuriootpa
Date/Time
CST
Temp
°C
App
Temp
°C
Dew
Point
°C
Rel
Hum
%
Delta-T
°C
Wind Press
QNH
hPa
Press
MSL
hPa
Rain since
9am
mm
Dir  Spd
km/h
Gust
km/h
Spd
kts
Gust
kts
23/04:00pm 16.4 12.8 10.0 66 3.4 NW 19 24 10 13 1020.2 1020.5 0.0
23/03:30pm 16.4 12.7 10.0 66 3.4 NW 20 28 11 15 1020.4 1020.7 0.0
23/03:00pm 16.3 11.9 9.0 62 3.8 NW 22 30 12 16 1020.6 1020.9 0.0
23/02:30pm 16.7 13.3 9.1 61 4.0 NW 17 28 9 15 1020.8 1021.1 0.0
23/02:00pm 16.6 13.5 10.2 66 3.4 NW 17 28 9 15 1020.8 1021.1 0.0
23/01:30pm 15.9 11.9 9.1 64 3.5 NW 20 32 11 17 1021.4 1021.7 0.0
23/01:00pm 15.3 10.5 9.0 66 3.3 NW 24 32 13 17 1022.2 1022.5 0.0
23/12:30pm 15.4 11.5 9.5 68 3.1 NW 20 33 11 18 1022.8 1023.1 0.0
23/12:00pm 15.0 10.3 9.1 68 3.0 NW 24 35 13 19 1023.3 1023.6 0.0
23/11:30am 15.0 12.7 9.1 68 3.0 N 11 22 6 12 1023.8 1024.1 0.0
23/11:00am 13.7 11.1 10.7 82 1.6 N 15 22 8 12 1024.2 1024.5 0.0
23/10:30am 13.0 10.8 9.4 79 1.8 N 11 19 6 10 1024.4 1024.7 0.0
23/10:00am 12.0 8.5 8.8 81 1.6 N 17 22 9 12 1024.9 1025.2 0.0
23/09:30am 11.0 7.7 8.2 83 1.4 N 15 20 8 11 1025.4 1025.8 0.0
23/09:00am 9.5 6.4 7.4 87 1.0 NNE 13 17 7 9 1025.8 1026.1 0.2
23/08:30am 7.9 5.9 6.2 89 0.8 NNE 6 9 3 5 1026.0 1026.3 0.2
23/08:00am 7.0 4.9 5.8 92 0.5 NE 6 9 3 5 1026.0 1026.3 0.2
23/07:30am 5.2 2.7 4.8 97 0.2 NE 7 11 4 6 1025.9 1026.2 0.2
23/07:00am 3.3 0.1 3.3 100 0.0 ENE 9 11 5 6 1025.9 1026.2 0.2
23/06:30am 4.0 1.0 3.9 99 0.0 ENE 9 11 5 6 1025.5 1025.9 0.2
23/06:00am 3.8 0.7 3.8 100 0.0 NE 9 11 5 6 1025.3 1025.7 0.2
23/05:30am 3.6 0.5 3.6 100 0.0 NE 9 13 5 7 1025.2 1025.6 0.2
23/05:00am 3.5 0.4 3.5 100 0.0 NE 9 9 5 5 1025.3 1025.7 0.2
23/04:30am 3.1 -0.1 3.1 100 0.0 ENE 9 13 5 7 1025.2 1025.6 0.2
23/04:00am 2.6 -0.1 2.6 100 0.0 NE 6 11 3 6 1025.4 1025.8 0.2
23/03:30am 2.4 0.8 2.4 100 0.0 CALM 0 0 0 0 1025.8 1026.1 0.2
23/03:00am 2.9 1.4 2.9 100 0.0 CALM 0 0 0 0 1026.1 1026.4 0.2
23/02:30am 2.8 1.2 2.7 99 0.0 CALM 0 0 0 0 1026.4 1026.7 0.2
23/02:00am 3.9 2.5 3.6 98 0.1 CALM 0 0 0 0 1026.7 1027.0 0.2
23/01:30am 5.1 2.7 4.4 95 0.3 ENE 6 9 3 5 1027.1 1027.4 0.2
23/01:00am 5.7 3.4 4.8 94 0.4 E 6 9 3 5 1027.5 1027.8 0.2
23/12:30am 7.1 4.8 5.6 90 0.7 E 7 11 4 6 1027.7 1028.0 0.2
23/12:00am 7.8 5.7 5.9 88 0.9 ENE 6 7 3 4 1028.1 1028.4 0.2
 
Date/Time
CST
Temp
°C
App
Temp
°C
Dew
Point
°C
Rel
Hum
%
Delta-T
°C
Wind Press
QNH
hPa
Press
MSL
hPa
Rain since
9am
mm
Dir  Spd
km/h
Gust
km/h
Spd
kts
Gust
kts
22/11:30pm 8.5 6.6 6.5 87 0.9 ENE 6 9 3 5 1028.1 1028.4 0.2
22/11:00pm 8.6 6.7 6.6 87 0.9 ESE 6 11 3 6 1028.0 1028.3 0.2
22/10:30pm 8.9 6.4 6.5 85 1.1 ESE 9 13 5 7 1028.3 1028.7 0.2
22/10:00pm 9.0 6.5 6.4 84 1.2 ESE 9 15 5 8 1028.3 1028.7 0.2
22/09:30pm 9.3 6.8 6.6 83 1.3 SE 9 13 5 7 1028.3 1028.7 0.2
22/09:00pm 9.6 6.7 6.7 82 1.4 SE 11 22 6 12 1028.3 1028.7 0.2
22/08:30pm 9.7 7.3 7.0 83 1.3 SE 9 13 5 7 1028.3 1028.7 0.2
22/08:00pm 10.1 7.8 7.3 83 1.4 ESE 9 11 5 6 1028.3 1028.7 0.2
22/07:30pm 10.5 9.1 7.4 81 1.5 E 4 7 2 4 1028.2 1028.6 0.2
22/07:00pm 10.9 10.8 9.5 91 0.7 CALM 0 0 0 0 1028.1 1028.4 0.2
22/06:30pm 11.0 11.0 9.8 92 0.6 CALM 0 6 0 3 1028.1 1028.4 0.2
22/06:00pm 11.1 9.4 9.7 91 0.7 W 9 11 5 6 1028.1 1028.4 0.2
22/05:30pm 11.4 9.6 9.5 88 1.0 W 9 11 5 6 1028.0 1028.3 0.2
22/05:00pm 11.5 9.8 9.8 89 0.9 SW 9 11 5 6 1027.9 1028.2 0.2
22/04:30pm 11.7 9.3 9.9 89 0.9 WSW 13 15 7 8 1027.9 1028.2 0.2
22/04:00pm 11.8 8.9 9.7 87 1.1 WSW 15 20 8 11 1028.0 1028.3 0.2
22/03:30pm 12.1 9.3 10.0 87 1.1 WSW 15 20 8 11 1027.9 1028.2 0.2
22/03:00pm 12.5 9.3 9.9 84 1.3 WSW 17 22 9 12 1028.1 1028.4 0.2
22/02:30pm 12.8 10.1 9.1 78 1.9 WSW 13 19 7 10 1028.0 1028.3 0.2
22/02:00pm 13.0 10.1 9.6 80 1.8 WSW 15 20 8 11 1028.1 1028.4 0.2
22/01:30pm 12.7 9.3 9.3 80 1.7 WSW 17 22 9 12 1028.2 1028.6 0.2
22/01:00pm 13.2 10.2 9.1 76 2.1 WSW 15 22 8 12 1028.4 1028.8 0.2
22/12:30pm 13.2 10.0 8.5 73 2.4 SW 15 20 8 11 1028.7 1029.1 0.2
22/12:00pm 12.9 10.2 9.0 77 2.0 WSW 13 19 7 10 1028.9 1029.3 0.2
22/11:30am 13.3 10.7 9.2 76 2.1 WSW 13 22 7 12 1029.2 1029.6 0.0
22/11:00am 13.0 10.2 8.5 74 2.3 WSW 13 20 7 11 1029.4 1029.8 0.0
22/10:30am 12.5 9.4 9.0 79 1.8 SW 15 20 8 11 1029.6 1029.9 0.0
22/10:00am 11.6 9.0 9.2 85 1.2 SW 13 20 7 11 1029.7 1030.0 0.0
22/09:30am 11.4 8.3 8.8 84 1.3 WSW 15 22 8 12 1029.7 1030.0 0.0
22/09:00am 11.0 8.4 9.4 90 0.8 WSW 13 20 7 11 1029.3 1029.7 1.0
22/08:30am 10.4 8.5 9.2 92 0.6 SW 9 13 5 7 1029.2 1029.6 1.0
22/08:00am 9.4 7.7 8.2 92 0.6 W 7 9 4 5 1028.9 1029.3 1.0
22/07:30am 8.5 7.7 8.1 97 0.2 SSW 2 7 1 4 1028.7 1029.1 1.0
22/07:00am 8.2 6.4 7.8 97 0.2 S 7 9 4 5 1028.5 1028.9 1.0
22/06:30am 8.4 5.4 7.5 94 0.4 WSW 13 17 7 9 1028.2 1028.6 1.0
22/06:00am 8.6 5.6 7.7 94 0.4 W 13 19 7 10 1027.9 1028.2 1.0
22/05:30am 9.3 5.0 7.9 91 0.7 WSW 20 32 11 17 1027.7 1028.0 1.0
22/05:00am 9.6 5.3 8.0 90 0.8 WSW 20 32 11 17 1027.6 1027.9 1.0
22/04:30am 9.3 5.3 9.2 99 0.0 W 20 30 11 16 1027.4 1027.7 1.0
22/04:00am 9.3 5.6 9.3 100 0.0 W 19 28 10 15 1027.5 1027.8 1.0
22/03:30am 9.5 5.8 9.5 100 0.0 W 19 24 10 13 1027.4 1027.7 1.0
22/03:00am 9.5 5.6 9.5 100 0.0 WSW 20 32 11 17 1027.5 1027.8 1.0
22/02:30am 9.8 5.2 9.8 100 0.0 WSW 24 41 13 22 1027.8 1028.1 1.0
22/02:00am 9.8 5.2 9.8 100 0.0 WSW 24 33 13 18 1027.9 1028.2 1.0
22/01:30am 10.0 5.9 10.0 100 0.0 WSW 22 32 12 17 1028.1 1028.4 1.0
22/01:00am 10.3 5.9 10.3 100 0.0 WSW 24 35 13 19 1028.0 1028.3 1.0
22/12:30am 10.3 6.6 10.3 100 0.0 WSW 20 28 11 15 1028.2 1028.6 1.0
22/12:00am 10.4 6.4 10.4 100 0.0 WSW 22 33 12 18 1028.4 1028.8 1.0
 
Date/Time
CST
Temp
°C
App
Temp
°C
Dew
Point
°C
Rel
Hum
%
Delta-T
°C
Wind Press
QNH
hPa
Press
MSL
hPa
Rain since
9am
mm
Dir  Spd
km/h
Gust
km/h
Spd
kts
Gust
kts
21/11:30pm 10.4 7.0 10.4 100 0.0 WSW 19 30 10 16 1028.5 1028.9 1.0
21/11:00pm 10.4 6.0 10.4 100 0.0 WSW 24 35 13 19 1028.6 1029.0 1.0
21/10:30pm 10.6 6.6 10.6 100 0.0 WSW 22 30 12 16 1028.7 1029.1 0.8
21/10:00pm 10.8 6.5 10.8 100 0.0 WSW 24 32 13 17 1028.7 1029.1 0.4
21/09:30pm 11.0 6.7 10.8 99 0.1 WSW 24 39 13 21 1028.6 1029.0 0.4
21/09:00pm 11.1 7.6 10.9 99 0.1 WSW 20 28 11 15 1028.6 1029.0 0.4
21/08:30pm 11.2 8.3 11.0 99 0.1 WSW 17 24 9 13 1028.5 1028.9 0.4
21/08:00pm 11.5 8.7 11.3 99 0.1 WSW 17 22 9 12 1028.6 1029.0 0.4
21/07:30pm 11.5 9.5 11.5 100 0.0 WSW 13 17 7 9 1028.5 1028.9 0.4
21/07:00pm 11.8 9.5 11.6 99 0.1 WSW 15 20 8 11 1028.6 1029.0 0.4
21/06:30pm 11.9 10.3 11.6 98 0.2 WSW 11 19 6 10 1028.4 1028.8 0.4
21/06:00pm 11.9 9.5 11.3 96 0.3 SW 15 20 8 11 1028.2 1028.6 0.4
21/05:30pm 12.1 9.6 11.2 94 0.5 SW 15 20 8 11 1028.1 1028.4 0.4
21/05:00pm 12.9 9.5 11.1 89 1.0 SW 20 28 11 15 1027.9 1028.2 0.4
21/04:30pm 13.2 9.5 11.4 89 1.0 SW 22 33 12 18 1027.8 1028.1 0.4
21/04:00pm 13.2 9.9 11.6 90 0.9 SW 20 28 11 15 1027.8 1028.1 0.4
21/03:30pm 13.5 9.1 11.6 88 1.0 SW 26 35 14 19 1028.0 1028.3 0.4
21/03:00pm 14.0 10.1 12.0 88 1.1 SW 24 37 13 20 1028.1 1028.4 0.4
21/02:30pm 13.7 9.3 11.8 88 1.0 WSW 26 37 14 20 1028.1 1028.4 0.4
21/02:00pm 13.2 8.8 11.6 90 0.9 WSW 26 37 14 20 1028.2 1028.6 0.4
21/01:30pm 12.7 8.6 11.6 93 0.6 WSW 24 37 13 20 1028.1 1028.4 0.4
21/01:00pm 12.2 7.3 11.4 95 0.4 WSW 28 39 15 21 1028.4 1028.8 0.4
21/12:30pm 13.0 8.9 11.6 91 0.7 WSW 24 37 13 20 1028.8 1029.2 0.4
21/12:00pm 12.7 8.3 11.6 93 0.6 WSW 26 37 14 20 1029.1 1029.5 0.4
21/11:30am 12.7 8.7 11.9 95 0.4 WSW 24 35 13 19 1029.4 1029.8 0.4
21/11:00am 11.8 7.4 11.6 99 0.1 WSW 26 33 14 18 1029.9 1030.2 0.4
21/10:30am 11.6 7.5 11.6 100 0.0 WSW 24 35 13 19 1029.9 1030.2 0.4
21/10:00am 11.4 6.9 11.4 100 0.0 W 26 37 14 20 1029.8 1030.1 0.4
21/09:30am 11.0 7.2 11.0 100 0.0 W 22 33 12 18 1029.7 1030.0 0.2
21/09:00am 10.6 6.3 10.6 100 0.0 W 24 35 13 19 1029.4 1029.8 2.8
21/08:30am 10.6 5.5 10.6 100 0.0 W 28 35 15 19 1029.1 1029.5 2.6
21/08:00am 10.2 5.7 10.2 100 0.0 W 24 32 13 17 1028.8 1029.2 2.6
21/07:30am 9.8 5.2 9.8 100 0.0 WNW 24 35 13 19 1028.7 1029.1 2.6
21/07:00am 9.7 5.5 9.7 100 0.0 WNW 22 32 12 17 1028.5 1028.9 2.4
21/06:30am 9.6 5.4 9.6 100 0.0 WNW 22 30 12 16 1028.5 1028.9 2.2
21/06:00am 9.5 5.8 9.5 100 0.0 W 19 30 10 16 1028.4 1028.8 2.0
21/05:30am 9.4 5.5 9.4 100 0.0 W 20 30 11 16 1028.4 1028.8 1.8
21/05:00am 9.4 5.5 9.4 100 0.0 W 20 26 11 14 1028.2 1028.6 1.8
21/04:30am 9.3 5.6 9.3 100 0.0 W 19 24 10 13 1028.3 1028.7 1.6
21/04:00am 9.4 4.7 9.4 100 0.0 W 24 33 13 18 1028.3 1028.7 1.2
21/03:30am 9.1 5.1 9.1 100 0.0 W 20 28 11 15 1028.4 1028.8 1.0
21/03:00am 9.1 4.4 9.1 100 0.0 WNW 24 32 13 17 1028.6 1029.0 1.0
21/02:30am 9.4 5.3 8.8 96 0.3 W 20 30 11 16 1028.9 1029.3 1.0
21/02:00am 9.6 5.5 8.8 95 0.4 W 20 28 11 15 1029.1 1029.5 1.0
21/01:30am 9.7 5.6 8.8 94 0.4 W 20 30 11 16 1029.2 1029.6 1.0
21/01:00am 9.8 5.3 8.7 93 0.5 W 22 32 12 17 1029.1 1029.5 1.0
21/12:30am 9.9 5.4 8.7 92 0.6 W 22 30 12 16 1029.3 1029.7 1.0
21/12:00am 9.9 5.9 9.0 94 0.4 W 20 32 11 17 1029.6 1029.9 1.0
 
Date/Time
CST
Temp
°C
App
Temp
°C
Dew
Point
°C
Rel
Hum
%
Delta-T
°C
Wind Press
QNH
hPa
Press
MSL
hPa
Rain since
9am
mm
Dir  Spd
km/h
Gust
km/h
Spd
kts
Gust
kts
20/11:30pm 9.9 6.0 9.4 97 0.3 W 20 33 11 18 1029.8 1030.1 1.0
20/11:00pm 9.9 5.2 9.4 97 0.3 W 24 37 13 20 1029.9 1030.2 1.0
20/10:30pm 10.0 5.0 9.4 96 0.3 W 26 37 14 20 1029.9 1030.2 1.0
20/10:00pm 10.0 4.7 9.9 99 0.1 W 28 39 15 21 1030.0 1030.3 1.0
20/09:49pm 10.0 4.6 9.5 97 0.3 W 28 50 15 27 1029.9 1030.2 1.0
20/09:30pm 9.9 4.5 9.4 97 0.3 W 28 37 15 20 1029.9 1030.2 1.0
20/09:00pm 9.9 4.2 9.9 100 0.0 W 30 43 16 23 1029.9 1030.2 1.0
20/08:30pm 9.8 3.7 9.8 100 0.0 W 32 44 17 24 1030.0 1030.3 0.8
20/08:00pm 9.8 3.7 9.8 100 0.0 W 32 44 17 24 1029.9 1030.2 0.8
20/07:30pm 9.8 4.1 9.8 100 0.0 W 30 41 16 22 1029.8 1030.1 0.8
20/07:00pm 9.9 5.7 9.9 100 0.0 W 22 33 12 18 1029.8 1030.1 0.6
20/06:30pm 9.9 5.7 9.9 100 0.0 W 22 32 12 17 1029.9 1030.2 0.6
20/06:00pm 10.1 5.2 9.8 98 0.2 W 26 39 14 21 1029.9 1030.2 0.4
20/05:30pm 9.9 3.8 9.9 100 0.0 W 32 44 17 24 1029.9 1030.2 0.2
20/05:00pm 10.9 5.7 9.0 88 1.0 W 26 41 14 22 1030.0 1030.3 0.2
20/04:30pm 11.1 6.0 9.2 88 1.0 W 26 35 14 19 1030.2 1030.5 0.2

Other formats

Comma delimited format used in spreadsheet applications
http://www.bom.gov.au/fwo/IDS60801/IDS60801.94681.axf

JavaScript Object Notation format (JSON) in row-major order
http://www.bom.gov.au/fwo/IDS60801/IDS60801.94681.json

Data quality

Most of these data are generated automatically and are frequently updated. Quality checks on data are not normally performed. It is possible for incorrect values to appear. Refer to information at About Latest Weather Observations and please check the disclaimer before using these data.